Amboy, California
Current Conditions -  °F | °C
As of 11:56 PM on Wednesday 17 Dec 2014 (Local Time) from KNXP Reporting Station
Broken Clouds Broken Clouds  
Wind Chill: 44°   Ceiling: 4100
Heat Index: 47°   Visibility: 10mi
Dew Point: 44°   Wind: 7mph
Humidity: 90%   Direction: 270°W
Pressure: 30.17"   Gusts: NA
Location:  34.56°N, 115.75°W
Report Text: KNXP 180756Z AUTO 27006KT 10SM BKN041 08/07 A3017 RMK AO2 SLP202 T00830067 401220044 $
Loading
Personal Weather Stations






























Interactive Weather Map New forecast layout! Learn more

10-Day Weather Forecast

Advertisements
Track Severe Weather on mobile